sensor_id;sensor_type;location;lat;lon;timestamp;temperature;humidity
56374;DHT22;58212;47.034;7.376;2022-08-16T00:01:55;17.70;99.90
56374;DHT22;58212;47.034;7.376;2022-08-16T00:04:22;17.60;99.90
56374;DHT22;58212;47.034;7.376;2022-08-16T00:06:49;17.60;99.90
56374;DHT22;58212;47.034;7.376;2022-08-16T00:09:16;17.50;99.90
56374;DHT22;58212;47.034;7.376;2022-08-16T00:11:44;17.50;99.90
56374;DHT22;58212;47.034;7.376;2022-08-16T00:14:14;17.30;99.90
56374;DHT22;58212;47.034;7.376;2022-08-16T00:16:43;17.30;99.90
56374;DHT22;58212;47.034;7.376;2022-08-16T00:19:11;17.30;99.90
56374;DHT22;58212;47.034;7.376;2022-08-16T00:21:38;17.30;99.90
56374;DHT22;58212;47.034;7.376;2022-08-16T00:24:05;17.30;99.90
56374;DHT22;58212;47.034;7.376;2022-08-16T00:26:32;17.20;99.90
56374;DHT22;58212;47.034;7.376;2022-08-16T00:29:00;17.10;99.90
56374;DHT22;58212;47.034;7.376;2022-08-16T00:31:29;17.10;99.90
56374;DHT22;58212;47.034;7.376;2022-08-16T00:33:58;17.10;99.90
56374;DHT22;58212;47.034;7.376;2022-08-16T00:36:25;17.00;99.90
56374;DHT22;58212;47.034;7.376;2022-08-16T00:38:52;17.00;99.90
56374;DHT22;58212;47.034;7.376;2022-08-16T00:41:20;17.00;99.90
56374;DHT22;58212;47.034;7.376;2022-08-16T00:43:47;17.00;99.90
56374;DHT22;58212;47.034;7.376;2022-08-16T00:46:21;17.00;99.90
56374;DHT22;58212;47.034;7.376;2022-08-16T00:48:50;17.00;99.90
56374;DHT22;58212;47.034;7.376;2022-08-16T00:51:21;16.90;99.90
56374;DHT22;58212;47.034;7.376;2022-08-16T00:53:50;16.90;99.90
56374;DHT22;58212;47.034;7.376;2022-08-16T00:56:21;16.90;99.90
56374;DHT22;58212;47.034;7.376;2022-08-16T00:58:50;16.80;99.90
56374;DHT22;58212;47.034;7.376;2022-08-16T01:01:18;16.80;99.90
56374;DHT22;58212;47.034;7.376;2022-08-16T01:03:49;16.80;99.90
56374;DHT22;58212;47.034;7.376;2022-08-16T01:06:19;16.80;99.90
56374;DHT22;58212;47.034;7.376;2022-08-16T01:08:49;16.70;99.90
56374;DHT22;58212;47.034;7.376;2022-08-16T01:11:18;16.70;99.90
56374;DHT22;58212;47.034;7.376;2022-08-16T01:13:45;16.70;99.90
56374;DHT22;58212;47.034;7.376;2022-08-16T01:16:17;16.70;99.90
56374;DHT22;58212;47.034;7.376;2022-08-16T01:18:49;16.70;99.90
56374;DHT22;58212;47.034;7.376;2022-08-16T01:21:25;16.80;99.90
56374;DHT22;58212;47.034;7.376;2022-08-16T01:24:10;16.70;99.90
56374;DHT22;58212;47.034;7.376;2022-08-16T01:26:42;16.70;99.90
56374;DHT22;58212;47.034;7.376;2022-08-16T01:29:15;16.70;99.90
56374;DHT22;58212;47.034;7.376;2022-08-16T01:31:43;16.70;99.90
56374;DHT22;58212;47.034;7.376;2022-08-16T01:34:11;16.70;99.90
56374;DHT22;58212;47.034;7.376;2022-08-16T01:36:39;16.70;99.90
56374;DHT22;58212;47.034;7.376;2022-08-16T01:39:12;16.70;99.90
56374;DHT22;58212;47.034;7.376;2022-08-16T01:41:40;16.60;99.90
56374;DHT22;58212;47.034;7.376;2022-08-16T01:44:08;16.60;99.90
56374;DHT22;58212;47.034;7.376;2022-08-16T01:46:39;16.70;99.90
56374;DHT22;58212;47.034;7.376;2022-08-16T01:49:16;16.70;99.90
56374;DHT22;58212;47.034;7.376;2022-08-16T01:51:47;16.70;99.90
56374;DHT22;58212;47.034;7.376;2022-08-16T01:54:24;16.70;99.90
56374;DHT22;58212;47.034;7.376;2022-08-16T01:56:51;16.60;99.90
56374;DHT22;58212;47.034;7.376;2022-08-16T01:59:21;16.60;99.90
56374;DHT22;58212;47.034;7.376;2022-08-16T02:01:51;16.60;99.90
56374;DHT22;58212;47.034;7.376;2022-08-16T02:04:19;16.60;99.90
56374;DHT22;58212;47.034;7.376;2022-08-16T02:06:46;16.70;99.90
56374;DHT22;58212;47.034;7.376;2022-08-16T02:09:19;16.60;99.90
56374;DHT22;58212;47.034;7.376;2022-08-16T02:11:53;16.70;99.90
56374;DHT22;58212;47.034;7.376;2022-08-16T02:14:22;16.60;99.90
56374;DHT22;58212;47.034;7.376;2022-08-16T02:16:51;16.50;99.90
56374;DHT22;58212;47.034;7.376;2022-08-16T02:19:19;16.50;99.90
56374;DHT22;58212;47.034;7.376;2022-08-16T02:21:50;16.40;99.90
56374;DHT22;58212;47.034;7.376;2022-08-16T02:24:18;16.30;99.90
56374;DHT22;58212;47.034;7.376;2022-08-16T02:26:59;16.20;99.90
56374;DHT22;58212;47.034;7.376;2022-08-16T02:29:41;16.10;99.90
56374;DHT22;58212;47.034;7.376;2022-08-16T02:32:10;16.00;99.90
56374;DHT22;58212;47.034;7.376;2022-08-16T02:34:38;15.90;99.90
56374;DHT22;58212;47.034;7.376;2022-08-16T02:37:05;15.90;99.90
56374;DHT22;58212;47.034;7.376;2022-08-16T02:39:33;15.80;99.90
56374;DHT22;58212;47.034;7.376;2022-08-16T02:42:02;15.80;99.90
56374;DHT22;58212;47.034;7.376;2022-08-16T02:44:29;15.70;99.90
56374;DHT22;58212;47.034;7.376;2022-08-16T02:46:58;15.70;99.90
56374;DHT22;58212;47.034;7.376;2022-08-16T02:49:27;15.80;99.90
56374;DHT22;58212;47.034;7.376;2022-08-16T02:51:54;15.80;99.90
56374;DHT22;58212;47.034;7.376;2022-08-16T02:54:21;15.80;99.90
56374;DHT22;58212;47.034;7.376;2022-08-16T02:56:48;15.80;99.90
56374;DHT22;58212;47.034;7.376;2022-08-16T02:59:17;15.70;99.90
56374;DHT22;58212;47.034;7.376;2022-08-16T03:01:44;15.50;99.90
56374;DHT22;58212;47.034;7.376;2022-08-16T03:04:17;15.40;99.90
56374;DHT22;58212;47.034;7.376;2022-08-16T03:06:44;15.40;99.90
56374;DHT22;58212;47.034;7.376;2022-08-16T03:09:21;15.50;99.90
56374;DHT22;58212;47.034;7.376;2022-08-16T03:11:52;15.60;99.90
56374;DHT22;58212;47.034;7.376;2022-08-16T03:14:21;15.50;99.90
56374;DHT22;58212;47.034;7.376;2022-08-16T03:16:49;15.60;99.90
56374;DHT22;58212;47.034;7.376;2022-08-16T03:19:16;15.70;99.90
56374;DHT22;58212;47.034;7.376;2022-08-16T03:21:44;15.80;99.90
56374;DHT22;58212;47.034;7.376;2022-08-16T03:24:12;15.80;99.90
56374;DHT22;58212;47.034;7.376;2022-08-16T03:26:39;15.70;99.90
56374;DHT22;58212;47.034;7.376;2022-08-16T03:29:07;15.70;99.90
56374;DHT22;58212;47.034;7.376;2022-08-16T03:31:38;15.80;99.90
56374;DHT22;58212;47.034;7.376;2022-08-16T03:34:05;15.80;99.90
56374;DHT22;58212;47.034;7.376;2022-08-16T03:36:32;15.80;99.90
56374;DHT22;58212;47.034;7.376;2022-08-16T03:39:04;15.80;99.90
56374;DHT22;58212;47.034;7.376;2022-08-16T03:41:31;15.80;99.90
56374;DHT22;58212;47.034;7.376;2022-08-16T03:43:59;15.70;99.90
56374;DHT22;58212;47.034;7.376;2022-08-16T03:46:29;15.80;99.90
56374;DHT22;58212;47.034;7.376;2022-08-16T03:48:59;15.80;99.90
56374;DHT22;58212;47.034;7.376;2022-08-16T03:51:26;15.80;99.90
56374;DHT22;58212;47.034;7.376;2022-08-16T03:54:00;15.70;99.90
56374;DHT22;58212;47.034;7.376;2022-08-16T03:56:27;15.80;99.90
56374;DHT22;58212;47.034;7.376;2022-08-16T03:58:54;15.70;99.90
56374;DHT22;58212;47.034;7.376;2022-08-16T04:01:26;15.60;99.90
56374;DHT22;58212;47.034;7.376;2022-08-16T04:03:54;15.50;99.90
56374;DHT22;58212;47.034;7.376;2022-08-16T04:06:23;15.50;99.90
56374;DHT22;58212;47.034;7.376;2022-08-16T04:08:50;15.50;99.90
56374;DHT22;58212;47.034;7.376;2022-08-16T04:11:18;15.40;99.90
56374;DHT22;58212;47.034;7.376;2022-08-16T04:13:45;15.40;99.90
56374;DHT22;58212;47.034;7.376;2022-08-16T04:16:14;15.40;99.90
56374;DHT22;58212;47.034;7.376;2022-08-16T04:18:44;15.50;99.90
56374;DHT22;58212;47.034;7.376;2022-08-16T04:21:13;15.50;99.90
56374;DHT22;58212;47.034;7.376;2022-08-16T04:23:41;15.50;99.90
56374;DHT22;58212;47.034;7.376;2022-08-16T04:26:08;15.40;99.90
56374;DHT22;58212;47.034;7.376;2022-08-16T04:28:39;15.50;99.90
56374;DHT22;58212;47.034;7.376;2022-08-16T04:31:09;15.70;99.90
56374;DHT22;58212;47.034;7.376;2022-08-16T04:33:40;15.70;99.90
56374;DHT22;58212;47.034;7.376;2022-08-16T04:36:07;15.70;99.90
56374;DHT22;58212;47.034;7.376;2022-08-16T04:38:35;15.60;99.90
56374;DHT22;58212;47.034;7.376;2022-08-16T04:41:03;15.50;99.90
56374;DHT22;58212;47.034;7.376;2022-08-16T04:43:32;15.50;99.90
56374;DHT22;58212;47.034;7.376;2022-08-16T04:46:04;15.50;99.90
56374;DHT22;58212;47.034;7.376;2022-08-16T04:48:36;15.40;99.90
56374;DHT22;58212;47.034;7.376;2022-08-16T04:51:09;15.40;99.90
56374;DHT22;58212;47.034;7.376;2022-08-16T04:53:40;15.50;99.90
56374;DHT22;58212;47.034;7.376;2022-08-16T04:56:09;15.60;99.90
56374;DHT22;58212;47.034;7.376;2022-08-16T04:58:36;15.60;99.90
56374;DHT22;58212;47.034;7.376;2022-08-16T05:01:03;15.60;99.90
56374;DHT22;58212;47.034;7.376;2022-08-16T05:03:31;15.70;99.90
56374;DHT22;58212;47.034;7.376;2022-08-16T05:05:59;15.80;99.90
56374;DHT22;58212;47.034;7.376;2022-08-16T05:08:28;15.90;99.90
56374;DHT22;58212;47.034;7.376;2022-08-16T05:11:01;15.90;99.90
56374;DHT22;58212;47.034;7.376;2022-08-16T05:13:30;16.00;99.90
56374;DHT22;58212;47.034;7.376;2022-08-16T05:15:59;17.50;99.90
56374;DHT22;58212;47.034;7.376;2022-08-16T05:18:27;19.60;99.90
56374;DHT22;58212;47.034;7.376;2022-08-16T05:20:57;20.60;99.90
56374;DHT22;58212;47.034;7.376;2022-08-16T05:23:24;21.40;99.90
56374;DHT22;58212;47.034;7.376;2022-08-16T05:25:52;21.70;99.90
56374;DHT22;58212;47.034;7.376;2022-08-16T05:28:19;22.20;99.90
56374;DHT22;58212;47.034;7.376;2022-08-16T05:30:54;22.70;99.90
56374;DHT22;58212;47.034;7.376;2022-08-16T05:33:25;22.70;99.90
56374;DHT22;58212;47.034;7.376;2022-08-16T05:35:53;22.80;99.90
56374;DHT22;58212;47.034;7.376;2022-08-16T05:38:35;22.90;99.90
56374;DHT22;58212;47.034;7.376;2022-08-16T05:41:05;22.80;99.90
56374;DHT22;58212;47.034;7.376;2022-08-16T05:43:36;23.00;99.90
56374;DHT22;58212;47.034;7.376;2022-08-16T05:46:05;23.00;99.90
56374;DHT22;58212;47.034;7.376;2022-08-16T05:48:34;23.10;99.90
56374;DHT22;58212;47.034;7.376;2022-08-16T05:51:05;23.30;99.90
56374;DHT22;58212;47.034;7.376;2022-08-16T05:53:33;23.50;99.90
56374;DHT22;58212;47.034;7.376;2022-08-16T05:56:10;23.60;99.90
56374;DHT22;58212;47.034;7.376;2022-08-16T05:58:40;23.40;99.90
56374;DHT22;58212;47.034;7.376;2022-08-16T06:01:12;24.00;99.90
56374;DHT22;58212;47.034;7.376;2022-08-16T06:03:42;23.40;99.90
56374;DHT22;58212;47.034;7.376;2022-08-16T06:06:17;23.10;99.90
56374;DHT22;58212;47.034;7.376;2022-08-16T06:08:44;23.20;99.90
56374;DHT22;58212;47.034;7.376;2022-08-16T06:11:13;23.70;99.90
56374;DHT22;58212;47.034;7.376;2022-08-16T06:13:44;25.00;99.90
56374;DHT22;58212;47.034;7.376;2022-08-16T06:16:17;25.00;99.90
56374;DHT22;58212;47.034;7.376;2022-08-16T06:18:46;25.80;99.90
56374;DHT22;58212;47.034;7.376;2022-08-16T06:21:14;25.90;99.90
56374;DHT22;58212;47.034;7.376;2022-08-16T06:23:43;25.40;99.90
56374;DHT22;58212;47.034;7.376;2022-08-16T06:26:10;25.00;99.90
56374;DHT22;58212;47.034;7.376;2022-08-16T06:28:42;25.20;99.90
56374;DHT22;58212;47.034;7.376;2022-08-16T06:31:15;24.20;99.90
56374;DHT22;58212;47.034;7.376;2022-08-16T06:33:47;23.90;99.90
56374;DHT22;58212;47.034;7.376;2022-08-16T06:36:17;24.40;99.90
56374;DHT22;58212;47.034;7.376;2022-08-16T06:39:04;24.80;99.90
56374;DHT22;58212;47.034;7.376;2022-08-16T06:41:50;24.10;99.90
56374;DHT22;58212;47.034;7.376;2022-08-16T06:44:35;22.30;99.90
56374;DHT22;58212;47.034;7.376;2022-08-16T06:47:05;21.40;99.90
56374;DHT22;58212;47.034;7.376;2022-08-16T06:49:35;20.90;99.90
56374;DHT22;58212;47.034;7.376;2022-08-16T06:52:03;20.60;99.90
56374;DHT22;58212;47.034;7.376;2022-08-16T06:54:36;20.60;99.90
56374;DHT22;58212;47.034;7.376;2022-08-16T06:57:03;21.00;99.90
56374;DHT22;58212;47.034;7.376;2022-08-16T06:59:32;21.30;99.90
56374;DHT22;58212;47.034;7.376;2022-08-16T07:01:59;21.30;99.90
56374;DHT22;58212;47.034;7.376;2022-08-16T07:04:27;21.30;99.90
56374;DHT22;58212;47.034;7.376;2022-08-16T07:06:56;21.70;99.90
56374;DHT22;58212;47.034;7.376;2022-08-16T07:09:25;21.80;99.90
56374;DHT22;58212;47.034;7.376;2022-08-16T07:11:52;21.90;99.90
56374;DHT22;58212;47.034;7.376;2022-08-16T07:14:28;22.10;99.90
56374;DHT22;58212;47.034;7.376;2022-08-16T07:16:59;22.40;99.90
56374;DHT22;58212;47.034;7.376;2022-08-16T07:19:28;22.20;99.90
56374;DHT22;58212;47.034;7.376;2022-08-16T07:21:59;22.40;99.90
56374;DHT22;58212;47.034;7.376;2022-08-16T07:24:28;21.80;99.90
56374;DHT22;58212;47.034;7.376;2022-08-16T07:26:58;22.40;99.90
56374;DHT22;58212;47.034;7.376;2022-08-16T07:29:27;22.80;99.90
56374;DHT22;58212;47.034;7.376;2022-08-16T07:31:57;22.80;99.90
56374;DHT22;58212;47.034;7.376;2022-08-16T07:34:24;22.60;99.90
56374;DHT22;58212;47.034;7.376;2022-08-16T07:36:52;22.80;99.90
56374;DHT22;58212;47.034;7.376;2022-08-16T07:39:20;22.90;99.90
56374;DHT22;58212;47.034;7.376;2022-08-16T07:41:47;23.30;99.90
56374;DHT22;58212;47.034;7.376;2022-08-16T07:44:15;23.10;99.90
56374;DHT22;58212;47.034;7.376;2022-08-16T07:46:42;23.30;99.90
56374;DHT22;58212;47.034;7.376;2022-08-16T07:49:18;23.00;99.90
56374;DHT22;58212;47.034;7.376;2022-08-16T07:51:46;23.00;99.90
56374;DHT22;58212;47.034;7.376;2022-08-16T07:54:16;22.80;99.90
56374;DHT22;58212;47.034;7.376;2022-08-16T07:56:46;22.90;99.90
56374;DHT22;58212;47.034;7.376;2022-08-16T07:59:13;23.40;99.90
56374;DHT22;58212;47.034;7.376;2022-08-16T08:01:41;23.10;99.90
56374;DHT22;58212;47.034;7.376;2022-08-16T08:04:08;22.90;99.90
56374;DHT22;58212;47.034;7.376;2022-08-16T08:06:38;22.80;99.90
56374;DHT22;58212;47.034;7.376;2022-08-16T08:09:11;22.90;99.90
56374;DHT22;58212;47.034;7.376;2022-08-16T08:11:40;22.80;99.90
56374;DHT22;58212;47.034;7.376;2022-08-16T08:14:10;23.30;99.90
56374;DHT22;58212;47.034;7.376;2022-08-16T08:16:43;23.40;99.90
56374;DHT22;58212;47.034;7.376;2022-08-16T08:19:16;23.60;99.90
56374;DHT22;58212;47.034;7.376;2022-08-16T08:21:46;23.60;99.90
56374;DHT22;58212;47.034;7.376;2022-08-16T08:24:16;23.60;99.90
56374;DHT22;58212;47.034;7.376;2022-08-16T08:26:45;23.90;99.90
56374;DHT22;58212;47.034;7.376;2022-08-16T08:29:14;24.00;99.90
56374;DHT22;58212;47.034;7.376;2022-08-16T08:31:41;23.60;99.90
56374;DHT22;58212;47.034;7.376;2022-08-16T08:34:10;23.50;99.90
56374;DHT22;58212;47.034;7.376;2022-08-16T08:36:39;23.40;99.90
56374;DHT22;58212;47.034;7.376;2022-08-16T08:39:17;23.60;99.90
56374;DHT22;58212;47.034;7.376;2022-08-16T08:41:45;23.20;99.90
56374;DHT22;58212;47.034;7.376;2022-08-16T08:44:15;23.70;99.90
56374;DHT22;58212;47.034;7.376;2022-08-16T08:46:42;24.30;99.90
56374;DHT22;58212;47.034;7.376;2022-08-16T08:49:09;24.60;99.90
56374;DHT22;58212;47.034;7.376;2022-08-16T08:51:40;24.30;99.90
56374;DHT22;58212;47.034;7.376;2022-08-16T08:54:10;24.10;99.90
56374;DHT22;58212;47.034;7.376;2022-08-16T08:56:42;23.90;99.90
56374;DHT22;58212;47.034;7.376;2022-08-16T08:59:31;24.30;99.90
56374;DHT22;58212;47.034;7.376;2022-08-16T09:01:59;24.60;99.90
56374;DHT22;58212;47.034;7.376;2022-08-16T09:04:34;24.60;99.90
56374;DHT22;58212;47.034;7.376;2022-08-16T09:07:05;24.70;99.90
56374;DHT22;58212;47.034;7.376;2022-08-16T09:09:34;24.90;99.90
56374;DHT22;58212;47.034;7.376;2022-08-16T09:12:04;24.70;99.90
56374;DHT22;58212;47.034;7.376;2022-08-16T09:14:54;24.80;99.90
56374;DHT22;58212;47.034;7.376;2022-08-16T09:17:25;24.60;99.90
56374;DHT22;58212;47.034;7.376;2022-08-16T09:19:52;24.60;99.90
56374;DHT22;58212;47.034;7.376;2022-08-16T09:22:20;24.70;99.90
56374;DHT22;58212;47.034;7.376;2022-08-16T09:24:50;25.00;99.90
56374;DHT22;58212;47.034;7.376;2022-08-16T09:27:18;24.80;99.90
56374;DHT22;58212;47.034;7.376;2022-08-16T09:29:45;24.80;99.90
56374;DHT22;58212;47.034;7.376;2022-08-16T09:32:17;25.10;99.90
56374;DHT22;58212;47.034;7.376;2022-08-16T09:34:45;24.80;99.90
56374;DHT22;58212;47.034;7.376;2022-08-16T09:37:12;24.80;99.90
56374;DHT22;58212;47.034;7.376;2022-08-16T09:39:40;25.30;99.90
56374;DHT22;58212;47.034;7.376;2022-08-16T09:42:09;25.70;99.90
56374;DHT22;58212;47.034;7.376;2022-08-16T09:44:39;25.30;99.90
56374;DHT22;58212;47.034;7.376;2022-08-16T09:47:06;25.20;99.90
56374;DHT22;58212;47.034;7.376;2022-08-16T09:49:35;25.30;99.90
56374;DHT22;58212;47.034;7.376;2022-08-16T09:52:03;25.20;99.90
56374;DHT22;58212;47.034;7.376;2022-08-16T09:54:32;25.60;99.90
56374;DHT22;58212;47.034;7.376;2022-08-16T09:56:59;25.50;99.90
56374;DHT22;58212;47.034;7.376;2022-08-16T09:59:27;25.90;99.90
56374;DHT22;58212;47.034;7.376;2022-08-16T10:01:54;25.80;99.90
56374;DHT22;58212;47.034;7.376;2022-08-16T10:04:23;25.90;99.90
56374;DHT22;58212;47.034;7.376;2022-08-16T10:06:55;26.10;99.90
56374;DHT22;58212;47.034;7.376;2022-08-16T10:09:23;26.00;99.90
56374;DHT22;58212;47.034;7.376;2022-08-16T10:12:04;26.40;99.90
56374;DHT22;58212;47.034;7.376;2022-08-16T10:14:51;26.50;99.90
56374;DHT22;58212;47.034;7.376;2022-08-16T10:17:18;26.20;99.90
56374;DHT22;58212;47.034;7.376;2022-08-16T10:19:46;26.10;99.90
56374;DHT22;58212;47.034;7.376;2022-08-16T10:22:17;26.10;99.90
56374;DHT22;58212;47.034;7.376;2022-08-16T10:24:45;26.20;99.90
56374;DHT22;58212;47.034;7.376;2022-08-16T10:27:16;26.30;99.90
56374;DHT22;58212;47.034;7.376;2022-08-16T10:29:46;26.40;99.90
56374;DHT22;58212;47.034;7.376;2022-08-16T10:32:13;26.50;99.90
56374;DHT22;58212;47.034;7.376;2022-08-16T10:34:41;26.70;99.90
56374;DHT22;58212;47.034;7.376;2022-08-16T10:37:08;26.70;99.90
56374;DHT22;58212;47.034;7.376;2022-08-16T10:39:37;27.10;99.90
56374;DHT22;58212;47.034;7.376;2022-08-16T10:42:05;27.10;99.90
56374;DHT22;58212;47.034;7.376;2022-08-16T10:44:32;26.80;99.90
56374;DHT22;58212;47.034;7.376;2022-08-16T10:47:00;26.80;99.90
56374;DHT22;58212;47.034;7.376;2022-08-16T10:49:27;26.70;99.90
56374;DHT22;58212;47.034;7.376;2022-08-16T10:51:56;26.90;99.90
56374;DHT22;58212;47.034;7.376;2022-08-16T10:54:24;26.70;99.90
56374;DHT22;58212;47.034;7.376;2022-08-16T10:56:52;26.90;99.90
56374;DHT22;58212;47.034;7.376;2022-08-16T10:59:21;26.90;99.90
56374;DHT22;58212;47.034;7.376;2022-08-16T11:01:48;26.70;99.90
56374;DHT22;58212;47.034;7.376;2022-08-16T11:04:18;26.90;99.90
56374;DHT22;58212;47.034;7.376;2022-08-16T11:06:45;26.90;99.90
56374;DHT22;58212;47.034;7.376;2022-08-16T11:09:13;27.40;99.90
56374;DHT22;58212;47.034;7.376;2022-08-16T11:11:40;27.40;99.90
56374;DHT22;58212;47.034;7.376;2022-08-16T11:14:08;27.60;99.90
56374;DHT22;58212;47.034;7.376;2022-08-16T11:16:37;27.90;99.90
56374;DHT22;58212;47.034;7.376;2022-08-16T11:19:05;27.50;99.90
56374;DHT22;58212;47.034;7.376;2022-08-16T11:21:35;27.60;99.90
56374;DHT22;58212;47.034;7.376;2022-08-16T11:24:03;27.60;99.90
56374;DHT22;58212;47.034;7.376;2022-08-16T11:26:30;27.70;99.90
56374;DHT22;58212;47.034;7.376;2022-08-16T11:28:58;27.50;99.90
56374;DHT22;58212;47.034;7.376;2022-08-16T11:31:26;27.40;99.90
56374;DHT22;58212;47.034;7.376;2022-08-16T11:33:53;27.50;99.90
56374;DHT22;58212;47.034;7.376;2022-08-16T11:36:21;27.70;99.90
56374;DHT22;58212;47.034;7.376;2022-08-16T11:38:48;27.70;99.90
56374;DHT22;58212;47.034;7.376;2022-08-16T11:41:15;27.80;99.90
56374;DHT22;58212;47.034;7.376;2022-08-16T11:43:43;28.00;99.90
56374;DHT22;58212;47.034;7.376;2022-08-16T11:46:13;28.10;98.60
56374;DHT22;58212;47.034;7.376;2022-08-16T11:48:43;28.00;98.90
56374;DHT22;58212;47.034;7.376;2022-08-16T11:51:14;27.90;98.50
56374;DHT22;58212;47.034;7.376;2022-08-16T11:53:41;27.60;99.00
56374;DHT22;58212;47.034;7.376;2022-08-16T11:56:08;27.60;98.40
56374;DHT22;58212;47.034;7.376;2022-08-16T11:58:36;28.00;98.10
56374;DHT22;58212;47.034;7.376;2022-08-16T12:01:05;27.80;97.50
56374;DHT22;58212;47.034;7.376;2022-08-16T12:03:32;27.90;96.90
56374;DHT22;58212;47.034;7.376;2022-08-16T12:06:04;28.00;96.80
56374;DHT22;58212;47.034;7.376;2022-08-16T12:08:34;28.10;97.60
56374;DHT22;58212;47.034;7.376;2022-08-16T12:11:01;28.30;97.50
56374;DHT22;58212;47.034;7.376;2022-08-16T12:13:30;28.60;97.00
56374;DHT22;58212;47.034;7.376;2022-08-16T12:15:58;28.50;96.20
56374;DHT22;58212;47.034;7.376;2022-08-16T12:18:25;28.40;96.60
56374;DHT22;58212;47.034;7.376;2022-08-16T12:20:53;28.20;95.80
56374;DHT22;58212;47.034;7.376;2022-08-16T12:23:26;28.10;96.40
56374;DHT22;58212;47.034;7.376;2022-08-16T12:25:57;28.50;96.90
56374;DHT22;58212;47.034;7.376;2022-08-16T12:28:30;28.50;95.00
56374;DHT22;58212;47.034;7.376;2022-08-16T12:31:00;28.50;96.80
56374;DHT22;58212;47.034;7.376;2022-08-16T12:33:28;28.60;96.50
56374;DHT22;58212;47.034;7.376;2022-08-16T12:35:56;28.60;95.70
56374;DHT22;58212;47.034;7.376;2022-08-16T12:38:25;28.80;95.30
56374;DHT22;58212;47.034;7.376;2022-08-16T12:40:55;28.70;95.50
56374;DHT22;58212;47.034;7.376;2022-08-16T12:43:23;28.70;93.90
56374;DHT22;58212;47.034;7.376;2022-08-16T12:45:54;28.60;93.80
56374;DHT22;58212;47.034;7.376;2022-08-16T12:48:28;28.40;94.70
56374;DHT22;58212;47.034;7.376;2022-08-16T12:51:16;28.80;94.10
56374;DHT22;58212;47.034;7.376;2022-08-16T12:53:47;29.10;93.00
56374;DHT22;58212;47.034;7.376;2022-08-16T12:56:18;29.00;92.40
56374;DHT22;58212;47.034;7.376;2022-08-16T12:58:47;29.10;92.70
56374;DHT22;58212;47.034;7.376;2022-08-16T13:01:16;29.20;92.30
56374;DHT22;58212;47.034;7.376;2022-08-16T13:03:43;29.50;90.70
56374;DHT22;58212;47.034;7.376;2022-08-16T13:06:11;29.40;89.40
56374;DHT22;58212;47.034;7.376;2022-08-16T13:08:40;29.50;87.70
56374;DHT22;58212;47.034;7.376;2022-08-16T13:11:08;29.70;90.00
56374;DHT22;58212;47.034;7.376;2022-08-16T13:13:36;29.70;90.40
56374;DHT22;58212;47.034;7.376;2022-08-16T13:16:05;29.60;88.90
56374;DHT22;58212;47.034;7.376;2022-08-16T13:18:33;29.40;87.30
56374;DHT22;58212;47.034;7.376;2022-08-16T13:21:02;29.40;88.90
56374;DHT22;58212;47.034;7.376;2022-08-16T13:23:30;29.40;90.50
56374;DHT22;58212;47.034;7.376;2022-08-16T13:25:58;29.40;88.20
56374;DHT22;58212;47.034;7.376;2022-08-16T13:28:27;29.50;88.50
56374;DHT22;58212;47.034;7.376;2022-08-16T13:30:55;29.40;88.50
56374;DHT22;58212;47.034;7.376;2022-08-16T13:33:27;29.40;87.70
56374;DHT22;58212;47.034;7.376;2022-08-16T13:35:58;29.50;86.90
56374;DHT22;58212;47.034;7.376;2022-08-16T13:38:28;29.40;85.80
56374;DHT22;58212;47.034;7.376;2022-08-16T13:40:56;29.40;90.10
56374;DHT22;58212;47.034;7.376;2022-08-16T13:43:25;29.50;88.50
56374;DHT22;58212;47.034;7.376;2022-08-16T13:45:55;29.30;90.50
56374;DHT22;58212;47.034;7.376;2022-08-16T13:48:23;29.40;85.80
56374;DHT22;58212;47.034;7.376;2022-08-16T13:50:52;29.60;87.60
56374;DHT22;58212;47.034;7.376;2022-08-16T13:53:20;29.50;85.20
56374;DHT22;58212;47.034;7.376;2022-08-16T13:55:47;29.50;84.70
56374;DHT22;58212;47.034;7.376;2022-08-16T13:58:14;29.50;86.00
56374;DHT22;58212;47.034;7.376;2022-08-16T14:00:44;29.60;88.30
56374;DHT22;58212;47.034;7.376;2022-08-16T14:03:13;29.30;86.90
56374;DHT22;58212;47.034;7.376;2022-08-16T14:09:28;29.70;89.00
56374;DHT22;58212;47.034;7.376;2022-08-16T14:11:57;29.80;85.90
56374;DHT22;58212;47.034;7.376;2022-08-16T14:14:28;29.60;81.70
56374;DHT22;58212;47.034;7.376;2022-08-16T14:16:56;29.60;84.10
56374;DHT22;58212;47.034;7.376;2022-08-16T14:19:26;29.60;83.10
56374;DHT22;58212;47.034;7.376;2022-08-16T14:21:57;29.70;84.70
56374;DHT22;58212;47.034;7.376;2022-08-16T14:24:24;29.40;84.80
56374;DHT22;58212;47.034;7.376;2022-08-16T14:26:52;29.40;85.70
56374;DHT22;58212;47.034;7.376;2022-08-16T14:29:19;29.30;82.40
56374;DHT22;58212;47.034;7.376;2022-08-16T14:31:48;29.50;83.60
56374;DHT22;58212;47.034;7.376;2022-08-16T14:34:16;29.50;87.70
56374;DHT22;58212;47.034;7.376;2022-08-16T14:36:44;29.60;86.90
56374;DHT22;58212;47.034;7.376;2022-08-16T14:39:12;29.60;83.50
56374;DHT22;58212;47.034;7.376;2022-08-16T14:41:39;29.60;83.20
56374;DHT22;58212;47.034;7.376;2022-08-16T14:44:07;29.20;87.40
56374;DHT22;58212;47.034;7.376;2022-08-16T14:46:34;29.00;85.70
56374;DHT22;58212;47.034;7.376;2022-08-16T14:49:02;29.10;88.00
56374;DHT22;58212;47.034;7.376;2022-08-16T14:51:32;29.10;82.90
56374;DHT22;58212;47.034;7.376;2022-08-16T14:54:02;29.20;86.20
56374;DHT22;58212;47.034;7.376;2022-08-16T14:56:34;29.40;88.50
56374;DHT22;58212;47.034;7.376;2022-08-16T14:59:02;29.40;87.30
56374;DHT22;58212;47.034;7.376;2022-08-16T15:01:30;29.30;80.40
56374;DHT22;58212;47.034;7.376;2022-08-16T15:04:02;29.30;83.10
56374;DHT22;58212;47.034;7.376;2022-08-16T15:06:30;29.40;87.20
56374;DHT22;58212;47.034;7.376;2022-08-16T15:08:58;29.40;84.30
56374;DHT22;58212;47.034;7.376;2022-08-16T15:11:27;29.40;87.40
56374;DHT22;58212;47.034;7.376;2022-08-16T15:13:56;29.30;85.50
56374;DHT22;58212;47.034;7.376;2022-08-16T15:16:24;29.30;82.10
56374;DHT22;58212;47.034;7.376;2022-08-16T15:18:53;29.30;85.80
56374;DHT22;58212;47.034;7.376;2022-08-16T15:21:23;29.20;86.70
56374;DHT22;58212;47.034;7.376;2022-08-16T15:23:51;29.10;84.40
56374;DHT22;58212;47.034;7.376;2022-08-16T15:26:19;29.00;83.10
56374;DHT22;58212;47.034;7.376;2022-08-16T15:28:49;29.00;84.50
56374;DHT22;58212;47.034;7.376;2022-08-16T15:31:17;29.10;85.40
56374;DHT22;58212;47.034;7.376;2022-08-16T15:33:45;29.00;84.60
56374;DHT22;58212;47.034;7.376;2022-08-16T15:36:15;28.90;84.70
56374;DHT22;58212;47.034;7.376;2022-08-16T15:38:44;28.90;85.20
56374;DHT22;58212;47.034;7.376;2022-08-16T15:41:28;28.80;81.10
56374;DHT22;58212;47.034;7.376;2022-08-16T15:43:58;28.80;80.50
56374;DHT22;58212;47.034;7.376;2022-08-16T15:46:28;28.80;83.60
56374;DHT22;58212;47.034;7.376;2022-08-16T15:48:55;28.70;85.90